sensor_id;sensor_type;location;lat;lon;timestamp;temperature;humidity
78779;DHT22;68121;52.404;5.318;2024-02-28T00:00:11;4.30;69.70
78779;DHT22;68121;52.404;5.318;2024-02-28T00:02:37;4.30;69.80
78779;DHT22;68121;52.404;5.318;2024-02-28T00:05:03;4.30;69.90
78779;DHT22;68121;52.404;5.318;2024-02-28T00:07:29;4.30;69.90
78779;DHT22;68121;52.404;5.318;2024-02-28T00:09:56;4.30;70.00
78779;DHT22;68121;52.404;5.318;2024-02-28T00:12:23;4.30;70.00
78779;DHT22;68121;52.404;5.318;2024-02-28T00:14:53;4.20;70.10
78779;DHT22;68121;52.404;5.318;2024-02-28T00:17:19;4.30;70.10
78779;DHT22;68121;52.404;5.318;2024-02-28T00:19:45;4.30;70.10
78779;DHT22;68121;52.404;5.318;2024-02-28T00:22:11;4.20;70.10
78779;DHT22;68121;52.404;5.318;2024-02-28T00:24:37;4.20;70.30
78779;DHT22;68121;52.404;5.318;2024-02-28T00:27:03;4.20;70.40
78779;DHT22;68121;52.404;5.318;2024-02-28T00:29:29;4.20;70.40
78779;DHT22;68121;52.404;5.318;2024-02-28T00:31:55;4.20;70.40
78779;DHT22;68121;52.404;5.318;2024-02-28T00:34:21;4.10;70.50
78779;DHT22;68121;52.404;5.318;2024-02-28T00:36:47;4.10;70.50
78779;DHT22;68121;52.404;5.318;2024-02-28T00:39:13;4.00;70.50
78779;DHT22;68121;52.404;5.318;2024-02-28T00:41:39;4.00;70.60
78779;DHT22;68121;52.404;5.318;2024-02-28T00:44:05;4.00;70.70
78779;DHT22;68121;52.404;5.318;2024-02-28T00:46:32;4.00;70.70
78779;DHT22;68121;52.404;5.318;2024-02-28T00:48:58;3.90;70.80
78779;DHT22;68121;52.404;5.318;2024-02-28T00:51:24;3.90;70.80
78779;DHT22;68121;52.404;5.318;2024-02-28T00:53:50;3.90;70.90
78779;DHT22;68121;52.404;5.318;2024-02-28T00:56:16;3.80;70.90
78779;DHT22;68121;52.404;5.318;2024-02-28T00:58:44;3.70;70.90
78779;DHT22;68121;52.404;5.318;2024-02-28T01:01:10;3.70;71.00
78779;DHT22;68121;52.404;5.318;2024-02-28T01:03:36;3.60;71.00
78779;DHT22;68121;52.404;5.318;2024-02-28T01:06:02;3.60;71.10
78779;DHT22;68121;52.404;5.318;2024-02-28T01:08:30;3.50;71.10
78779;DHT22;68121;52.404;5.318;2024-02-28T01:10:56;3.50;71.20
78779;DHT22;68121;52.404;5.318;2024-02-28T01:13:22;3.50;71.20
78779;DHT22;68121;52.404;5.318;2024-02-28T01:15:48;3.50;71.20
78779;DHT22;68121;52.404;5.318;2024-02-28T01:18:15;3.50;71.30
78779;DHT22;68121;52.404;5.318;2024-02-28T01:20:41;3.50;71.20
78779;DHT22;68121;52.404;5.318;2024-02-28T01:23:07;3.50;71.30
78779;DHT22;68121;52.404;5.318;2024-02-28T01:25:33;3.50;71.30
78779;DHT22;68121;52.404;5.318;2024-02-28T01:27:59;3.50;71.40
78779;DHT22;68121;52.404;5.318;2024-02-28T01:30:25;3.50;71.40
78779;DHT22;68121;52.404;5.318;2024-02-28T01:32:52;3.50;71.40
78779;DHT22;68121;52.404;5.318;2024-02-28T01:35:18;3.50;71.40
78779;DHT22;68121;52.404;5.318;2024-02-28T01:37:44;3.50;71.40
78779;DHT22;68121;52.404;5.318;2024-02-28T01:40:10;3.50;71.40
78779;DHT22;68121;52.404;5.318;2024-02-28T01:42:36;3.50;71.40
78779;DHT22;68121;52.404;5.318;2024-02-28T01:45:03;3.50;71.40
78779;DHT22;68121;52.404;5.318;2024-02-28T01:47:29;3.50;71.40
78779;DHT22;68121;52.404;5.318;2024-02-28T01:49:56;3.40;71.50
78779;DHT22;68121;52.404;5.318;2024-02-28T01:52:22;3.30;71.50
78779;DHT22;68121;52.404;5.318;2024-02-28T01:54:48;3.30;71.60
78779;DHT22;68121;52.404;5.318;2024-02-28T01:57:15;3.30;71.60
78779;DHT22;68121;52.404;5.318;2024-02-28T01:59:42;3.30;71.60
78779;DHT22;68121;52.404;5.318;2024-02-28T02:02:08;3.30;71.70
78779;DHT22;68121;52.404;5.318;2024-02-28T02:04:34;3.30;71.80
78779;DHT22;68121;52.404;5.318;2024-02-28T02:07:00;3.30;71.80
78779;DHT22;68121;52.404;5.318;2024-02-28T02:09:26;3.30;71.80
78779;DHT22;68121;52.404;5.318;2024-02-28T02:11:52;3.30;71.80
78779;DHT22;68121;52.404;5.318;2024-02-28T02:14:18;3.30;71.80
78779;DHT22;68121;52.404;5.318;2024-02-28T02:16:44;3.30;71.80
78779;DHT22;68121;52.404;5.318;2024-02-28T02:19:11;3.30;71.80
78779;DHT22;68121;52.404;5.318;2024-02-28T02:21:41;3.30;71.80
78779;DHT22;68121;52.404;5.318;2024-02-28T02:24:08;3.30;71.80
78779;DHT22;68121;52.404;5.318;2024-02-28T02:26:34;3.30;71.90
78779;DHT22;68121;52.404;5.318;2024-02-28T02:29:00;3.30;71.90
78779;DHT22;68121;52.404;5.318;2024-02-28T02:31:26;3.30;71.90
78779;DHT22;68121;52.404;5.318;2024-02-28T02:33:53;3.30;71.90
78779;DHT22;68121;52.404;5.318;2024-02-28T02:36:19;3.30;72.00
78779;DHT22;68121;52.404;5.318;2024-02-28T02:38:45;3.30;71.90
78779;DHT22;68121;52.404;5.318;2024-02-28T02:41:11;3.30;71.90
78779;DHT22;68121;52.404;5.318;2024-02-28T02:43:37;3.30;71.90
78779;DHT22;68121;52.404;5.318;2024-02-28T02:46:03;3.30;71.90
78779;DHT22;68121;52.404;5.318;2024-02-28T02:48:29;3.20;71.90
78779;DHT22;68121;52.404;5.318;2024-02-28T02:50:55;3.10;72.00
78779;DHT22;68121;52.404;5.318;2024-02-28T02:53:21;3.10;72.00
78779;DHT22;68121;52.404;5.318;2024-02-28T02:55:47;3.10;72.00
78779;DHT22;68121;52.404;5.318;2024-02-28T02:58:13;3.10;72.00
78779;DHT22;68121;52.404;5.318;2024-02-28T03:00:39;3.10;72.10
78779;DHT22;68121;52.404;5.318;2024-02-28T03:03:05;3.20;72.20
78779;DHT22;68121;52.404;5.318;2024-02-28T03:05:32;3.20;72.10
78779;DHT22;68121;52.404;5.318;2024-02-28T03:07:58;3.20;72.00
78779;DHT22;68121;52.404;5.318;2024-02-28T03:10:24;3.30;72.10
78779;DHT22;68121;52.404;5.318;2024-02-28T03:12:50;3.30;72.10
78779;DHT22;68121;52.404;5.318;2024-02-28T03:15:16;3.30;72.10
78779;DHT22;68121;52.404;5.318;2024-02-28T03:17:42;3.30;72.00
78779;DHT22;68121;52.404;5.318;2024-02-28T03:20:09;3.40;72.10
78779;DHT22;68121;52.404;5.318;2024-02-28T03:22:35;3.40;72.10
78779;DHT22;68121;52.404;5.318;2024-02-28T03:25:01;3.40;72.00
78779;DHT22;68121;52.404;5.318;2024-02-28T03:27:27;3.50;72.10
78779;DHT22;68121;52.404;5.318;2024-02-28T03:29:53;3.50;72.10
78779;DHT22;68121;52.404;5.318;2024-02-28T03:32:19;3.50;72.10
78779;DHT22;68121;52.404;5.318;2024-02-28T03:34:45;3.50;72.10
78779;DHT22;68121;52.404;5.318;2024-02-28T03:37:11;3.50;72.10
78779;DHT22;68121;52.404;5.318;2024-02-28T03:39:37;3.60;72.10
78779;DHT22;68121;52.404;5.318;2024-02-28T03:42:03;3.60;72.10
78779;DHT22;68121;52.404;5.318;2024-02-28T03:44:29;3.70;72.10
78779;DHT22;68121;52.404;5.318;2024-02-28T03:46:55;3.70;72.10
78779;DHT22;68121;52.404;5.318;2024-02-28T03:49:21;3.70;72.10
78779;DHT22;68121;52.404;5.318;2024-02-28T03:51:47;3.70;72.10
78779;DHT22;68121;52.404;5.318;2024-02-28T03:54:13;3.80;72.10
78779;DHT22;68121;52.404;5.318;2024-02-28T03:56:39;3.80;72.10
78779;DHT22;68121;52.404;5.318;2024-02-28T03:59:05;3.90;72.10
78779;DHT22;68121;52.404;5.318;2024-02-28T04:01:31;3.80;72.20
78779;DHT22;68121;52.404;5.318;2024-02-28T04:03:57;3.90;72.20
78779;DHT22;68121;52.404;5.318;2024-02-28T04:06:24;3.90;72.20
78779;DHT22;68121;52.404;5.318;2024-02-28T04:08:50;3.90;72.20
78779;DHT22;68121;52.404;5.318;2024-02-28T04:11:16;3.90;72.20
78779;DHT22;68121;52.404;5.318;2024-02-28T04:13:42;4.00;72.20
78779;DHT22;68121;52.404;5.318;2024-02-28T04:16:09;4.00;72.10
78779;DHT22;68121;52.404;5.318;2024-02-28T04:18:35;4.00;72.10
78779;DHT22;68121;52.404;5.318;2024-02-28T04:21:01;4.00;72.10
78779;DHT22;68121;52.404;5.318;2024-02-28T04:23:27;4.10;72.20
78779;DHT22;68121;52.404;5.318;2024-02-28T04:25:53;4.10;72.20
78779;DHT22;68121;52.404;5.318;2024-02-28T04:28:19;4.10;72.20
78779;DHT22;68121;52.404;5.318;2024-02-28T04:30:45;4.10;72.20
78779;DHT22;68121;52.404;5.318;2024-02-28T04:33:11;4.10;72.30
78779;DHT22;68121;52.404;5.318;2024-02-28T04:35:37;4.10;72.20
78779;DHT22;68121;52.404;5.318;2024-02-28T04:38:03;4.10;72.30
78779;DHT22;68121;52.404;5.318;2024-02-28T04:40:29;4.10;72.30
78779;DHT22;68121;52.404;5.318;2024-02-28T04:42:55;4.00;72.40
78779;DHT22;68121;52.404;5.318;2024-02-28T04:45:21;4.00;72.40
78779;DHT22;68121;52.404;5.318;2024-02-28T04:47:48;4.10;72.50
78779;DHT22;68121;52.404;5.318;2024-02-28T04:50:14;4.00;72.50
78779;DHT22;68121;52.404;5.318;2024-02-28T04:52:40;4.00;72.50
78779;DHT22;68121;52.404;5.318;2024-02-28T04:55:07;4.10;72.50
78779;DHT22;68121;52.404;5.318;2024-02-28T04:57:33;4.10;72.50
78779;DHT22;68121;52.404;5.318;2024-02-28T04:59:59;4.10;72.50
78779;DHT22;68121;52.404;5.318;2024-02-28T05:02:25;4.10;72.50
78779;DHT22;68121;52.404;5.318;2024-02-28T05:04:51;4.10;72.50
78779;DHT22;68121;52.404;5.318;2024-02-28T05:07:17;4.10;72.50
78779;DHT22;68121;52.404;5.318;2024-02-28T05:09:43;4.10;72.60
78779;DHT22;68121;52.404;5.318;2024-02-28T05:12:09;4.20;72.60
78779;DHT22;68121;52.404;5.318;2024-02-28T05:14:37;4.20;72.60
78779;DHT22;68121;52.404;5.318;2024-02-28T05:17:03;4.20;72.60
78779;DHT22;68121;52.404;5.318;2024-02-28T05:19:29;4.20;72.60
78779;DHT22;68121;52.404;5.318;2024-02-28T05:21:57;4.30;72.70
78779;DHT22;68121;52.404;5.318;2024-02-28T05:24:23;4.30;72.60
78779;DHT22;68121;52.404;5.318;2024-02-28T05:26:49;4.30;72.70
78779;DHT22;68121;52.404;5.318;2024-02-28T05:29:15;4.30;72.70
78779;DHT22;68121;52.404;5.318;2024-02-28T05:31:41;4.30;72.70
78779;DHT22;68121;52.404;5.318;2024-02-28T05:34:07;4.40;72.70
78779;DHT22;68121;52.404;5.318;2024-02-28T05:36:33;4.40;72.70
78779;DHT22;68121;52.404;5.318;2024-02-28T05:39:00;4.40;72.80
78779;DHT22;68121;52.404;5.318;2024-02-28T05:41:31;4.50;72.80
78779;DHT22;68121;52.404;5.318;2024-02-28T05:43:57;4.40;72.80
78779;DHT22;68121;52.404;5.318;2024-02-28T05:46:23;4.50;72.80
78779;DHT22;68121;52.404;5.318;2024-02-28T05:48:49;4.50;72.80
78779;DHT22;68121;52.404;5.318;2024-02-28T05:51:16;4.50;72.80
78779;DHT22;68121;52.404;5.318;2024-02-28T05:53:42;4.50;72.80
78779;DHT22;68121;52.404;5.318;2024-02-28T05:56:10;4.50;72.80
78779;DHT22;68121;52.404;5.318;2024-02-28T05:58:46;4.50;72.80
78779;DHT22;68121;52.404;5.318;2024-02-28T06:01:16;4.50;72.90
78779;DHT22;68121;52.404;5.318;2024-02-28T06:03:46;4.50;72.90
78779;DHT22;68121;52.404;5.318;2024-02-28T06:06:12;4.60;72.90
78779;DHT22;68121;52.404;5.318;2024-02-28T06:08:40;4.70;72.90
78779;DHT22;68121;52.404;5.318;2024-02-28T06:11:07;4.70;72.90
78779;DHT22;68121;52.404;5.318;2024-02-28T06:13:33;4.70;72.90
78779;DHT22;68121;52.404;5.318;2024-02-28T06:15:59;4.70;73.00
78779;DHT22;68121;52.404;5.318;2024-02-28T06:18:26;4.80;72.90
78779;DHT22;68121;52.404;5.318;2024-02-28T06:20:56;4.90;73.00
78779;DHT22;68121;52.404;5.318;2024-02-28T06:23:23;5.00;73.20
78779;DHT22;68121;52.404;5.318;2024-02-28T06:25:49;5.10;73.00
78779;DHT22;68121;52.404;5.318;2024-02-28T06:28:15;5.10;72.80
78779;DHT22;68121;52.404;5.318;2024-02-28T06:30:43;5.20;72.90
78779;DHT22;68121;52.404;5.318;2024-02-28T06:33:10;5.20;72.90
78779;DHT22;68121;52.404;5.318;2024-02-28T06:35:36;5.30;72.90
78779;DHT22;68121;52.404;5.318;2024-02-28T06:38:02;5.30;73.00
78779;DHT22;68121;52.404;5.318;2024-02-28T06:40:28;5.30;73.00
78779;DHT22;68121;52.404;5.318;2024-02-28T06:42:54;5.30;73.00
78779;DHT22;68121;52.404;5.318;2024-02-28T06:45:20;5.30;73.00
78779;DHT22;68121;52.404;5.318;2024-02-28T06:47:47;5.30;73.00
78779;DHT22;68121;52.404;5.318;2024-02-28T06:50:13;5.30;73.10
78779;DHT22;68121;52.404;5.318;2024-02-28T06:52:39;5.30;73.10
78779;DHT22;68121;52.404;5.318;2024-02-28T06:55:05;5.40;73.10
78779;DHT22;68121;52.404;5.318;2024-02-28T06:57:40;5.40;73.20
78779;DHT22;68121;52.404;5.318;2024-02-28T07:00:08;5.40;73.20
78779;DHT22;68121;52.404;5.318;2024-02-28T07:02:37;5.50;73.20
78779;DHT22;68121;52.404;5.318;2024-02-28T07:05:04;5.50;73.20
78779;DHT22;68121;52.404;5.318;2024-02-28T07:07:33;5.50;73.20
78779;DHT22;68121;52.404;5.318;2024-02-28T07:09:59;5.50;73.20
78779;DHT22;68121;52.404;5.318;2024-02-28T07:12:25;5.40;73.20
78779;DHT22;68121;52.404;5.318;2024-02-28T07:14:52;5.30;73.20
78779;DHT22;68121;52.404;5.318;2024-02-28T07:17:18;5.30;73.30
78779;DHT22;68121;52.404;5.318;2024-02-28T07:19:44;5.30;73.40
78779;DHT22;68121;52.404;5.318;2024-02-28T07:22:10;5.30;73.40
78779;DHT22;68121;52.404;5.318;2024-02-28T07:24:36;5.30;73.50
78779;DHT22;68121;52.404;5.318;2024-02-28T07:27:03;5.30;73.50
78779;DHT22;68121;52.404;5.318;2024-02-28T07:29:29;5.30;73.40
78779;DHT22;68121;52.404;5.318;2024-02-28T07:31:55;5.30;73.50
78779;DHT22;68121;52.404;5.318;2024-02-28T07:34:21;5.30;73.50
78779;DHT22;68121;52.404;5.318;2024-02-28T07:36:47;5.40;73.60
78779;DHT22;68121;52.404;5.318;2024-02-28T07:39:13;5.50;73.60
78779;DHT22;68121;52.404;5.318;2024-02-28T07:41:40;5.50;73.40
78779;DHT22;68121;52.404;5.318;2024-02-28T07:44:10;5.50;73.40
78779;DHT22;68121;52.404;5.318;2024-02-28T07:46:37;5.50;73.50
78779;DHT22;68121;52.404;5.318;2024-02-28T07:49:03;5.50;73.40
78779;DHT22;68121;52.404;5.318;2024-02-28T07:51:29;5.50;73.50
78779;DHT22;68121;52.404;5.318;2024-02-28T07:53:55;5.50;73.50
78779;DHT22;68121;52.404;5.318;2024-02-28T07:56:21;5.50;73.60
78779;DHT22;68121;52.404;5.318;2024-02-28T07:58:47;5.50;73.60
78779;DHT22;68121;52.404;5.318;2024-02-28T08:01:13;5.50;73.70
78779;DHT22;68121;52.404;5.318;2024-02-28T08:03:39;5.50;73.70
78779;DHT22;68121;52.404;5.318;2024-02-28T08:06:06;5.50;73.70
78779;DHT22;68121;52.404;5.318;2024-02-28T08:08:35;5.50;73.70
78779;DHT22;68121;52.404;5.318;2024-02-28T08:11:01;5.50;73.80
78779;DHT22;68121;52.404;5.318;2024-02-28T08:13:27;5.60;73.80
78779;DHT22;68121;52.404;5.318;2024-02-28T08:15:54;5.60;73.80
78779;DHT22;68121;52.404;5.318;2024-02-28T08:18:20;5.60;73.80
78779;DHT22;68121;52.404;5.318;2024-02-28T08:20:46;5.60;73.80
78779;DHT22;68121;52.404;5.318;2024-02-28T08:23:13;5.60;73.80
78779;DHT22;68121;52.404;5.318;2024-02-28T08:25:39;5.60;73.90
78779;DHT22;68121;52.404;5.318;2024-02-28T08:28:05;5.60;74.00
78779;DHT22;68121;52.404;5.318;2024-02-28T08:30:31;5.60;74.00
78779;DHT22;68121;52.404;5.318;2024-02-28T08:32:59;5.60;73.90
78779;DHT22;68121;52.404;5.318;2024-02-28T08:35:25;5.60;74.10
78779;DHT22;68121;52.404;5.318;2024-02-28T08:37:52;5.60;74.10
78779;DHT22;68121;52.404;5.318;2024-02-28T08:40:18;5.70;74.40
78779;DHT22;68121;52.404;5.318;2024-02-28T08:42:45;5.90;74.20
78779;DHT22;68121;52.404;5.318;2024-02-28T08:45:12;6.10;74.00
78779;DHT22;68121;52.404;5.318;2024-02-28T08:47:38;6.10;73.90
78779;DHT22;68121;52.404;5.318;2024-02-28T08:50:04;6.10;73.80
78779;DHT22;68121;52.404;5.318;2024-02-28T08:52:30;6.10;73.90
78779;DHT22;68121;52.404;5.318;2024-02-28T08:54:56;6.00;74.00
78779;DHT22;68121;52.404;5.318;2024-02-28T08:57:23;6.00;74.20
78779;DHT22;68121;52.404;5.318;2024-02-28T08:59:50;5.90;74.30
78779;DHT22;68121;52.404;5.318;2024-02-28T09:02:16;5.90;74.30
78779;DHT22;68121;52.404;5.318;2024-02-28T09:04:42;5.90;74.40
78779;DHT22;68121;52.404;5.318;2024-02-28T09:07:08;5.90;74.50
78779;DHT22;68121;52.404;5.318;2024-02-28T09:09:34;6.00;74.40
78779;DHT22;68121;52.404;5.318;2024-02-28T09:12:04;6.00;74.50
78779;DHT22;68121;52.404;5.318;2024-02-28T09:14:30;6.00;74.50
78779;DHT22;68121;52.404;5.318;2024-02-28T09:16:56;6.10;74.50
78779;DHT22;68121;52.404;5.318;2024-02-28T09:19:31;6.10;74.40
78779;DHT22;68121;52.404;5.318;2024-02-28T09:21:58;6.20;74.40
78779;DHT22;68121;52.404;5.318;2024-02-28T09:24:24;6.20;74.50
78779;DHT22;68121;52.404;5.318;2024-02-28T09:26:51;6.20;74.40
78779;DHT22;68121;52.404;5.318;2024-02-28T09:29:17;6.30;74.40
78779;DHT22;68121;52.404;5.318;2024-02-28T09:31:43;6.30;74.60
78779;DHT22;68121;52.404;5.318;2024-02-28T09:34:09;6.40;74.40
78779;DHT22;68121;52.404;5.318;2024-02-28T09:36:42;6.50;74.30
78779;DHT22;68121;52.404;5.318;2024-02-28T09:39:09;6.50;74.40
78779;DHT22;68121;52.404;5.318;2024-02-28T09:41:35;6.60;74.30
78779;DHT22;68121;52.404;5.318;2024-02-28T09:44:02;6.60;74.30
78779;DHT22;68121;52.404;5.318;2024-02-28T09:46:29;6.70;74.30
78779;DHT22;68121;52.404;5.318;2024-02-28T09:48:56;6.80;74.30
78779;DHT22;68121;52.404;5.318;2024-02-28T09:51:22;6.80;74.30
78779;DHT22;68121;52.404;5.318;2024-02-28T09:53:50;6.90;74.20
78779;DHT22;68121;52.404;5.318;2024-02-28T09:56:16;6.90;74.20
78779;DHT22;68121;52.404;5.318;2024-02-28T09:58:43;6.90;74.20
78779;DHT22;68121;52.404;5.318;2024-02-28T10:01:11;7.00;74.20
78779;DHT22;68121;52.404;5.318;2024-02-28T10:03:41;7.00;74.10
78779;DHT22;68121;52.404;5.318;2024-02-28T10:06:07;7.00;74.20
78779;DHT22;68121;52.404;5.318;2024-02-28T10:08:33;7.20;74.20
78779;DHT22;68121;52.404;5.318;2024-02-28T10:11:00;7.30;74.00
78779;DHT22;68121;52.404;5.318;2024-02-28T10:13:26;7.40;73.90
78779;DHT22;68121;52.404;5.318;2024-02-28T10:15:53;7.40;73.90
78779;DHT22;68121;52.404;5.318;2024-02-28T10:18:20;7.50;73.90
78779;DHT22;68121;52.404;5.318;2024-02-28T10:20:47;7.50;73.90
78779;DHT22;68121;52.404;5.318;2024-02-28T10:23:13;7.50;73.90
78779;DHT22;68121;52.404;5.318;2024-02-28T10:25:46;7.60;73.80
78779;DHT22;68121;52.404;5.318;2024-02-28T10:28:14;7.60;73.80
78779;DHT22;68121;52.404;5.318;2024-02-28T10:30:41;7.70;73.80
78779;DHT22;68121;52.404;5.318;2024-02-28T10:33:11;7.70;73.80
78779;DHT22;68121;52.404;5.318;2024-02-28T10:35:39;7.80;73.80
78779;DHT22;68121;52.404;5.318;2024-02-28T10:38:06;7.80;73.90
78779;DHT22;68121;52.404;5.318;2024-02-28T10:40:32;7.80;73.80
78779;DHT22;68121;52.404;5.318;2024-02-28T10:42:59;7.80;73.80
78779;DHT22;68121;52.404;5.318;2024-02-28T10:45:27;7.80;73.80
78779;DHT22;68121;52.404;5.318;2024-02-28T10:47:56;7.90;73.80
78779;DHT22;68121;52.404;5.318;2024-02-28T10:50:22;8.00;73.70
78779;DHT22;68121;52.404;5.318;2024-02-28T10:52:50;8.00;73.70
78779;DHT22;68121;52.404;5.318;2024-02-28T10:55:21;8.00;73.70
78779;DHT22;68121;52.404;5.318;2024-02-28T10:58:07;8.00;73.60
78779;DHT22;68121;52.404;5.318;2024-02-28T11:00:35;8.10;73.60
78779;DHT22;68121;52.404;5.318;2024-02-28T11:03:01;8.10;73.60
78779;DHT22;68121;52.404;5.318;2024-02-28T11:05:41;8.20;73.60
78779;DHT22;68121;52.404;5.318;2024-02-28T11:08:11;8.30;73.50
78779;DHT22;68121;52.404;5.318;2024-02-28T11:10:43;8.40;73.50
78779;DHT22;68121;52.404;5.318;2024-02-28T11:13:23;8.50;73.30
78779;DHT22;68121;52.404;5.318;2024-02-28T11:15:49;8.60;73.20
78779;DHT22;68121;52.404;5.318;2024-02-28T11:18:15;8.60;73.00
78779;DHT22;68121;52.404;5.318;2024-02-28T11:20:41;8.60;72.80
78779;DHT22;68121;52.404;5.318;2024-02-28T11:23:09;8.60;72.80
78779;DHT22;68121;52.404;5.318;2024-02-28T11:25:36;8.60;72.70
78779;DHT22;68121;52.404;5.318;2024-02-28T11:28:02;8.60;72.80
78779;DHT22;68121;52.404;5.318;2024-02-28T11:30:28;8.60;72.90
78779;DHT22;68121;52.404;5.318;2024-02-28T11:32:54;8.60;72.90
78779;DHT22;68121;52.404;5.318;2024-02-28T11:35:21;8.60;72.80
78779;DHT22;68121;52.404;5.318;2024-02-28T11:37:48;8.80;72.80
78779;DHT22;68121;52.404;5.318;2024-02-28T11:40:15;8.80;72.80
78779;DHT22;68121;52.404;5.318;2024-02-28T11:42:41;8.90;72.60
78779;DHT22;68121;52.404;5.318;2024-02-28T11:45:10;9.00;72.50
78779;DHT22;68121;52.404;5.318;2024-02-28T11:47:36;9.20;72.30
78779;DHT22;68121;52.404;5.318;2024-02-28T11:50:03;9.20;72.10
78779;DHT22;68121;52.404;5.318;2024-02-28T11:52:33;9.40;72.10
78779;DHT22;68121;52.404;5.318;2024-02-28T11:54:59;9.40;72.00
78779;DHT22;68121;52.404;5.318;2024-02-28T11:57:26;9.50;71.90
78779;DHT22;68121;52.404;5.318;2024-02-28T11:59:52;9.50;71.70
78779;DHT22;68121;52.404;5.318;2024-02-28T12:02:18;9.50;71.60
78779;DHT22;68121;52.404;5.318;2024-02-28T12:04:45;9.50;71.70
78779;DHT22;68121;52.404;5.318;2024-02-28T12:07:12;9.60;71.70
78779;DHT22;68121;52.404;5.318;2024-02-28T12:09:38;9.60;71.60
78779;DHT22;68121;52.404;5.318;2024-02-28T12:12:06;9.60;71.70
78779;DHT22;68121;52.404;5.318;2024-02-28T12:14:36;9.60;71.80
78779;DHT22;68121;52.404;5.318;2024-02-28T12:17:02;9.70;71.60
78779;DHT22;68121;52.404;5.318;2024-02-28T12:19:28;9.80;71.50
78779;DHT22;68121;52.404;5.318;2024-02-28T12:21:55;10.00;71.20
78779;DHT22;68121;52.404;5.318;2024-02-28T12:24:21;10.00;71.10
78779;DHT22;68121;52.404;5.318;2024-02-28T12:26:47;10.10;71.00
78779;DHT22;68121;52.404;5.318;2024-02-28T12:29:13;10.10;71.00
78779;DHT22;68121;52.404;5.318;2024-02-28T12:31:40;10.10;71.00
78779;DHT22;68121;52.404;5.318;2024-02-28T12:34:06;10.00;71.10
78779;DHT22;68121;52.404;5.318;2024-02-28T12:36:32;10.00;71.00
78779;DHT22;68121;52.404;5.318;2024-02-28T12:38:58;10.00;71.10
78779;DHT22;68121;52.404;5.318;2024-02-28T12:41:28;9.80;71.00
78779;DHT22;68121;52.404;5.318;2024-02-28T12:43:54;9.70;71.20
78779;DHT22;68121;52.404;5.318;2024-02-28T12:46:20;9.70;71.10
78779;DHT22;68121;52.404;5.318;2024-02-28T12:48:46;9.60;71.10
78779;DHT22;68121;52.404;5.318;2024-02-28T12:54:03;9.60;71.20
78779;DHT22;68121;52.404;5.318;2024-02-28T12:56:29;9.60;71.20
78779;DHT22;68121;52.404;5.318;2024-02-28T12:58:55;9.60;71.20
78779;DHT22;68121;52.404;5.318;2024-02-28T13:01:22;9.50;71.20
78779;DHT22;68121;52.404;5.318;2024-02-28T13:03:48;9.50;71.20
78779;DHT22;68121;52.404;5.318;2024-02-28T13:06:14;9.50;71.20
78779;DHT22;68121;52.404;5.318;2024-02-28T13:08:41;9.40;71.20
78779;DHT22;68121;52.404;5.318;2024-02-28T13:11:07;9.40;71.30
78779;DHT22;68121;52.404;5.318;2024-02-28T13:13:33;9.40;71.30
78779;DHT22;68121;52.404;5.318;2024-02-28T13:15:59;9.40;71.30
78779;DHT22;68121;52.404;5.318;2024-02-28T13:18:25;9.40;71.30
78779;DHT22;68121;52.404;5.318;2024-02-28T13:20:52;9.40;71.30
78779;DHT22;68121;52.404;5.318;2024-02-28T13:23:18;9.40;71.20
78779;DHT22;68121;52.404;5.318;2024-02-28T13:25:47;9.40;71.20
78779;DHT22;68121;52.404;5.318;2024-02-28T13:28:14;9.50;71.20
78779;DHT22;68121;52.404;5.318;2024-02-28T13:30:40;9.40;71.10
78779;DHT22;68121;52.404;5.318;2024-02-28T13:33:06;9.50;71.10
78779;DHT22;68121;52.404;5.318;2024-02-28T13:35:32;9.50;71.10
78779;DHT22;68121;52.404;5.318;2024-02-28T13:37:59;9.50;71.10
78779;DHT22;68121;52.404;5.318;2024-02-28T13:40:26;9.50;71.00
78779;DHT22;68121;52.404;5.318;2024-02-28T13:42:53;9.50;70.90
78779;DHT22;68121;52.404;5.318;2024-02-28T13:45:20;9.50;70.90
78779;DHT22;68121;52.404;5.318;2024-02-28T13:47:46;9.50;71.00
78779;DHT22;68121;52.404;5.318;2024-02-28T13:50:12;9.50;71.00
78779;DHT22;68121;52.404;5.318;2024-02-28T13:52:38;9.50;71.00
78779;DHT22;68121;52.404;5.318;2024-02-28T13:55:04;9.50;71.00
78779;DHT22;68121;52.404;5.318;2024-02-28T13:57:30;9.40;71.00
78779;DHT22;68121;52.404;5.318;2024-02-28T13:59:56;9.50;71.00
78779;DHT22;68121;52.404;5.318;2024-02-28T14:02:22;9.50;71.10
78779;DHT22;68121;52.404;5.318;2024-02-28T14:04:55;9.50;71.00
78779;DHT22;68121;52.404;5.318;2024-02-28T14:07:21;9.50;71.00
78779;DHT22;68121;52.404;5.318;2024-02-28T14:09:47;9.50;71.00
78779;DHT22;68121;52.404;5.318;2024-02-28T14:12:13;9.50;71.00
78779;DHT22;68121;52.404;5.318;2024-02-28T14:14:39;9.50;71.00
78779;DHT22;68121;52.404;5.318;2024-02-28T14:17:06;9.40;71.00
78779;DHT22;68121;52.404;5.318;2024-02-28T14:19:32;9.40;71.20
78779;DHT22;68121;52.404;5.318;2024-02-28T14:21:58;9.40;71.10
78779;DHT22;68121;52.404;5.318;2024-02-28T14:24:24;9.50;71.10
78779;DHT22;68121;52.404;5.318;2024-02-28T14:26:50;9.50;71.20
78779;DHT22;68121;52.404;5.318;2024-02-28T14:29:16;9.60;71.30
78779;DHT22;68121;52.404;5.318;2024-02-28T14:31:42;9.80;71.00
78779;DHT22;68121;52.404;5.318;2024-02-28T14:34:08;10.00;70.70
78779;DHT22;68121;52.404;5.318;2024-02-28T14:36:35;10.00;70.50
78779;DHT22;68121;52.404;5.318;2024-02-28T14:39:01;10.00;70.50
78779;DHT22;68121;52.404;5.318;2024-02-28T14:41:27;10.00;70.60
78779;DHT22;68121;52.404;5.318;2024-02-28T14:43:53;9.80;70.70
78779;DHT22;68121;52.404;5.318;2024-02-28T14:46:19;9.80;70.70
78779;DHT22;68121;52.404;5.318;2024-02-28T14:48:47;9.80;70.70
78779;DHT22;68121;52.404;5.318;2024-02-28T14:51:20;9.70;70.80
78779;DHT22;68121;52.404;5.318;2024-02-28T14:53:47;9.70;70.80
78779;DHT22;68121;52.404;5.318;2024-02-28T14:56:13;9.70;70.80
78779;DHT22;68121;52.404;5.318;2024-02-28T14:58:40;9.60;70.80
78779;DHT22;68121;52.404;5.318;2024-02-28T15:01:06;9.60;70.80
78779;DHT22;68121;52.404;5.318;2024-02-28T15:03:32;9.60;70.80
78779;DHT22;68121;52.404;5.318;2024-02-28T15:05:58;9.60;70.80
78779;DHT22;68121;52.404;5.318;2024-02-28T15:08:24;9.60;70.70
78779;DHT22;68121;52.404;5.318;2024-02-28T15:10:50;9.60;70.80
78779;DHT22;68121;52.404;5.318;2024-02-28T15:13:18;9.60;70.80
78779;DHT22;68121;52.404;5.318;2024-02-28T15:15:44;9.60;70.70
78779;DHT22;68121;52.404;5.318;2024-02-28T15:18:10;9.60;70.70
78779;DHT22;68121;52.404;5.318;2024-02-28T15:20:36;9.50;70.70
78779;DHT22;68121;52.404;5.318;2024-02-28T15:23:03;9.50;70.80
78779;DHT22;68121;52.404;5.318;2024-02-28T15:25:30;9.50;70.80
78779;DHT22;68121;52.404;5.318;2024-02-28T15:27:56;9.50;70.80
78779;DHT22;68121;52.404;5.318;2024-02-28T15:30:22;9.50;70.80
78779;DHT22;68121;52.404;5.318;2024-02-28T15:32:48;9.50;70.90
78779;DHT22;68121;52.404;5.318;2024-02-28T15:35:14;9.50;70.90
78779;DHT22;68121;52.404;5.318;2024-02-28T15:37:40;9.50;70.90
78779;DHT22;68121;52.404;5.318;2024-02-28T15:40:06;9.50;70.90
78779;DHT22;68121;52.404;5.318;2024-02-28T15:42:33;9.50;70.80